Time;durP1;ratioP1;P1;durP2;ratioP2;P2;SDS_P1;SDS_P2;PMS_P1;PMS_P2;Temp;Humidity;BMP_temperature;BMP_pressure;BME280_temperature;BME280_humidity;BME280_pressure;Samples;Min_cycle;Max_cycle;Signal;HPM_P1;HPM_P2
2021/08/24 00:02:03;;;;;;;5.53;4.75;;;15.30;99.90;;;;;;5015560;28;24506;-84
2021/08/24 00:04:28;;;;;;;5.68;5.18;;;15.30;99.90;;;;;;5015526;28;24570;-85
2021/08/24 00:06:54;;;;;;;5.43;5.03;;;15.30;99.90;;;;;;5019052;28;24442;-85
2021/08/24 00:09:23;;;;;;;5.43;4.93;;;15.60;99.90;;;;;;5017475;28;24443;-84
2021/08/24 00:11:48;;;;;;;5.60;5.10;;;15.50;99.90;;;;;;5021019;28;24480;-85
2021/08/24 00:14:15;;;;;;;5.00;4.50;;;15.50;99.90;;;;;;5021631;28;24581;-85
2021/08/24 00:16:41;;;;;;;5.55;5.05;;;15.50;99.90;;;;;;5002181;28;24452;-87
2021/08/24 00:19:09;;;;;;;5.40;4.90;;;15.50;99.90;;;;;;5022480;28;24713;-86
2021/08/24 00:21:42;;;;;;;5.70;5.28;;;15.60;99.90;;;;;;5009267;28;24999;-84
2021/08/24 00:24:09;;;;;;;5.10;4.70;;;15.50;99.90;;;;;;5008055;28;24536;-85
2021/08/24 00:26:37;;;;;;;5.43;4.90;;;15.50;99.90;;;;;;5023354;28;24428;-85
2021/08/24 00:29:03;;;;;;;5.60;5.00;;;15.50;99.90;;;;;;5024939;28;24848;-84
2021/08/24 00:31:29;;;;;;;5.35;4.90;;;15.50;99.90;;;;;;5006102;28;24913;-85
2021/08/24 00:33:55;;;;;;;5.05;4.65;;;15.50;99.90;;;;;;5003912;28;24504;-84
2021/08/24 00:36:21;;;;;;;5.50;5.10;;;15.50;99.90;;;;;;5022904;28;24503;-84
2021/08/24 00:38:48;;;;;;;5.28;4.82;;;15.40;99.90;;;;;;5020914;28;24476;-87
2021/08/24 00:41:16;;;;;;;6.20;5.30;;;15.40;99.90;;;;;;5010591;28;24514;-85
2021/08/24 00:43:44;;;;;;;5.40;4.90;;;15.40;99.90;;;;;;5027242;28;24447;-83
2021/08/24 00:46:15;;;;;;;4.97;4.60;;;15.40;99.90;;;;;;5026516;28;24409;-83
2021/08/24 00:48:42;;;;;;;5.15;4.80;;;15.40;99.90;;;;;;5026901;28;24446;-83
2021/08/24 00:51:09;;;;;;;5.45;5.05;;;15.30;99.90;;;;;;5026893;28;24514;-87
2021/08/24 00:53:36;;;;;;;5.10;4.70;;;15.30;99.90;;;;;;5025200;28;24471;-83
2021/08/24 00:56:06;;;;;;;5.55;5.05;;;15.30;99.90;;;;;;5025302;28;24478;-85
2021/08/24 00:58:35;;;;;;;5.78;4.90;;;15.30;99.90;;;;;;5022432;28;24508;-84
2021/08/24 01:01:03;;;;;;;5.30;4.90;;;15.30;99.90;;;;;;5025103;28;24470;-83
2021/08/24 01:03:35;;;;;;;5.30;4.90;;;15.20;99.90;;;;;;5026797;28;24439;-84
2021/08/24 01:06:10;;;;;;;5.45;5.05;;;15.20;99.90;;;;;;5027540;28;24998;-86
2021/08/24 01:08:47;;;;;;;5.20;4.70;;;15.20;99.90;;;;;;5009120;28;24447;-85
2021/08/24 01:11:37;;;;;;;4.95;4.55;;;15.10;99.90;;;;;;5022856;28;24469;-86
2021/08/24 01:14:30;;;;;;;5.30;4.90;;;15.10;99.90;;;;;;5024918;28;24495;-83
2021/08/24 01:17:00;;;;;;;6.30;5.30;;;15.10;99.90;;;;;;5026861;28;24432;-85
2021/08/24 01:19:50;;;;;;;5.23;4.83;;;15.10;99.90;;;;;;5028692;28;24442;-85
2021/08/24 01:22:39;;;;;;;5.60;5.10;;;15.00;99.90;;;;;;5023453;28;24461;-84
2021/08/24 01:25:17;;;;;;;5.50;5.07;;;15.00;99.90;;;;;;5005410;28;24419;-88
2021/08/24 01:28:24;;;;;;;5.05;4.65;;;14.90;99.90;;;;;;5023269;28;24495;-86
2021/08/24 01:31:23;;;;;;;5.03;4.63;;;14.90;99.90;;;;;;4995869;28;24458;-83
2021/08/24 01:33:58;;;;;;;5.20;4.78;;;14.90;99.90;;;;;;5022449;28;24462;-86
2021/08/24 01:36:46;;;;;;;6.75;5.20;;;14.80;99.90;;;;;;5024473;28;24439;-84
2021/08/24 01:39:47;;;;;;;6.20;4.65;;;14.80;99.90;;;;;;5028407;28;24527;-83
2021/08/24 01:42:16;;;;;;;5.60;5.10;;;14.80;99.90;;;;;;5028159;28;25753;-84
2021/08/24 01:45:04;;;;;;;5.18;4.78;;;14.80;99.90;;;;;;5006504;28;24466;-84
2021/08/24 01:48:02;;;;;;;5.00;4.60;;;14.70;99.90;;;;;;5024773;28;24478;-84
2021/08/24 01:50:37;;;;;;;5.68;4.80;;;14.70;99.90;;;;;;5012280;28;24452;-82
2021/08/24 01:53:13;;;;;;;5.40;4.90;;;14.70;99.90;;;;;;5025345;28;24523;-85
2021/08/24 01:55:47;;;;;;;5.88;5.38;;;14.60;99.90;;;;;;5021599;28;24525;-85
2021/08/24 01:58:28;;;;;;;5.70;5.30;;;14.60;99.90;;;;;;5025692;28;24412;-84
2021/08/24 02:01:01;;;;;;;5.40;4.90;;;14.60;99.90;;;;;;5006499;28;24685;-85
2021/08/24 02:03:32;;;;;;;5.50;4.93;;;14.60;99.90;;;;;;5007238;28;24470;-85
2021/08/24 02:06:17;;;;;;;4.90;4.50;;;14.60;99.90;;;;;;5023072;28;24436;-88
2021/08/24 02:08:48;;;;;;;5.40;4.90;;;14.60;99.90;;;;;;5025734;28;24466;-84
2021/08/24 02:11:14;;;;;;;5.88;5.15;;;14.20;99.90;;;;;;5024160;28;24462;-84
2021/08/24 02:13:44;;;;;;;6.00;5.30;;;14.80;99.90;;;;;;5023337;28;24443;-84
2021/08/24 02:16:14;;;;;;;6.80;5.15;;;14.50;99.90;;;;;;5021969;28;24486;-86
2021/08/24 02:18:51;;;;;;;5.30;4.80;;;14.50;99.90;;;;;;5021924;28;24520;-86
2021/08/24 02:21:22;;;;;;;5.13;4.65;;;14.50;99.90;;;;;;5006946;28;24981;-84
2021/08/24 02:23:54;;;;;;;6.03;5.53;;;14.50;99.90;;;;;;5028157;28;24454;-84
2021/08/24 02:26:26;;;;;;;6.35;5.00;;;14.50;99.90;;;;;;5024530;28;24467;-84
2021/08/24 02:28:55;;;;;;;5.38;4.90;;;14.50;99.90;;;;;;5023746;28;24459;-85
2021/08/24 02:31:42;;;;;;;4.93;4.53;;;14.50;99.90;;;;;;5024020;28;20859;-84
2021/08/24 02:34:26;;;;;;;5.30;4.80;;;14.50;99.90;;;;;;5024610;28;24432;-82
2021/08/24 02:37:07;;;;;;;5.28;4.78;;;14.50;99.90;;;;;;5022954;28;24432;-84
2021/08/24 02:39:46;;;;;;;5.38;4.90;;;14.40;99.90;;;;;;5021003;28;24811;-86
2021/08/24 02:42:31;;;;;;;5.10;4.70;;;14.40;99.90;;;;;;5021589;28;25236;-83
2021/08/24 02:45:15;;;;;;;5.60;5.10;;;14.40;99.90;;;;;;5025455;28;24526;-84
2021/08/24 02:47:45;;;;;;;5.50;5.00;;;14.30;99.90;;;;;;5004614;28;24427;-82
2021/08/24 02:50:11;;;;;;;5.30;4.80;;;14.30;99.90;;;;;;5026163;28;24495;-84
2021/08/24 02:52:39;;;;;;;5.10;4.70;;;14.30;99.90;;;;;;5019985;28;24980;-86
2021/08/24 02:55:09;;;;;;;5.43;4.93;;;14.30;99.90;;;;;;5020488;28;24871;-84
2021/08/24 02:57:35;;;;;;;5.10;4.70;;;14.30;99.90;;;;;;5021556;28;24795;-84
2021/08/24 03:00:00;;;;;;;5.50;5.10;;;14.30;99.90;;;;;;5018741;28;24886;-85
2021/08/24 03:02:26;;;;;;;5.28;4.80;;;14.30;99.90;;;;;;5023732;28;24439;-84
2021/08/24 03:04:55;;;;;;;5.43;5.00;;;14.60;99.90;;;;;;5021572;28;24443;-83
2021/08/24 03:07:27;;;;;;;5.30;4.80;;;14.30;99.90;;;;;;5025712;28;24739;-86
2021/08/24 03:09:55;;;;;;;5.88;5.10;;;14.30;99.90;;;;;;5005563;28;25159;-84
2021/08/24 03:12:29;;;;;;;5.53;4.93;;;14.30;99.90;;;;;;5024449;28;24454;-82
2021/08/24 03:15:17;;;;;;;5.60;5.10;;;14.30;99.90;;;;;;5024554;28;24435;-85
2021/08/24 03:17:52;;;;;;;6.03;5.43;;;14.20;99.90;;;;;;5024288;28;24959;-83
2021/08/24 03:20:22;;;;;;;5.28;4.88;;;14.20;99.90;;;;;;5007909;28;24462;-83
2021/08/24 03:22:50;;;;;;;5.80;4.82;;;14.20;99.90;;;;;;5010736;28;24542;-86
2021/08/24 03:25:19;;;;;;;5.53;4.95;;;14.20;99.90;;;;;;5026304;28;24431;-84
2021/08/24 03:27:47;;;;;;;6.10;5.50;;;13.90;99.90;;;;;;5024919;28;24436;-85
2021/08/24 03:30:16;;;;;;;5.78;5.20;;;14.10;99.90;;;;;;5010033;28;24440;-84
2021/08/24 03:32:46;;;;;;;5.60;5.10;;;14.30;99.90;;;;;;5024463;28;24424;-83
2021/08/24 03:35:16;;;;;;;6.30;5.70;;;14.10;99.90;;;;;;5020164;28;24419;-86
2021/08/24 03:37:43;;;;;;;6.30;5.70;;;14.10;99.90;;;;;;5005809;28;24508;-84
2021/08/24 03:40:13;;;;;;;6.38;5.78;;;14.10;99.90;;;;;;5023660;28;24451;-84
2021/08/24 03:42:39;;;;;;;6.00;5.32;;;14.10;99.90;;;;;;5022878;28;24440;-87
2021/08/24 03:45:08;;;;;;;6.03;5.53;;;14.10;99.90;;;;;;5025210;28;24484;-83
2021/08/24 03:47:34;;;;;;;6.35;5.80;;;14.10;99.90;;;;;;5024434;28;24515;-83
2021/08/24 03:49:59;;;;;;;6.30;5.70;;;14.10;99.90;;;;;;5022810;28;24467;-82
2021/08/24 03:52:25;;;;;;;6.93;6.22;;;14.10;99.90;;;;;;5009608;28;24482;-85
2021/08/24 03:54:54;;;;;;;7.35;6.55;;;14.10;99.90;;;;;;5021013;28;20749;-86
2021/08/24 03:57:22;;;;;;;7.00;6.40;;;14.10;99.90;;;;;;5025623;28;24446;-82
2021/08/24 03:59:55;;;;;;;7.00;6.40;;;14.10;99.90;;;;;;5023540;28;24525;-82
2021/08/24 04:02:25;;;;;;;7.88;7.15;;;14.00;99.90;;;;;;5024556;28;24435;-82
2021/08/24 04:04:51;;;;;;;8.45;7.75;;;14.30;99.90;;;;;;5028126;28;24959;-84
2021/08/24 04:07:19;;;;;;;8.52;7.75;;;14.10;99.90;;;;;;5008111;28;25256;-84
2021/08/24 04:09:46;;;;;;;8.68;7.97;;;14.00;99.90;;;;;;5010264;28;20804;-85
2021/08/24 04:12:14;;;;;;;8.07;7.38;;;14.20;99.90;;;;;;5026929;28;24440;-81
2021/08/24 04:14:49;;;;;;;8.50;7.80;;;14.00;99.90;;;;;;5009211;28;24405;-81
2021/08/24 04:17:14;;;;;;;8.60;7.80;;;14.00;99.90;;;;;;5023812;28;24426;-81
2021/08/24 04:19:40;;;;;;;9.03;8.13;;;13.90;99.90;;;;;;5012586;28;25022;-81
2021/08/24 04:22:07;;;;;;;9.33;8.53;;;13.90;99.90;;;;;;5026454;28;24430;-84
2021/08/24 04:24:33;;;;;;;9.63;8.83;;;13.90;99.90;;;;;;5028369;28;24513;-82
2021/08/24 04:26:58;;;;;;;9.43;8.70;;;13.90;99.90;;;;;;5028719;28;25030;-84
2021/08/24 04:29:24;;;;;;;9.47;8.67;;;13.90;99.90;;;;;;5029070;28;24440;-81
2021/08/24 04:31:49;;;;;;;8.93;8.13;;;14.20;99.90;;;;;;5029002;28;24784;-80
2021/08/24 04:34:17;;;;;;;9.60;8.80;;;13.80;99.90;;;;;;5028123;28;25145;-83
2021/08/24 04:36:46;;;;;;;9.40;8.50;;;13.80;99.90;;;;;;5007179;28;24420;-83
2021/08/24 04:39:18;;;;;;;9.35;8.55;;;13.90;99.90;;;;;;5029879;28;24521;-85
2021/08/24 04:41:44;;;;;;;9.33;8.53;;;13.80;99.90;;;;;;5027862;28;24650;-83
2021/08/24 04:44:09;;;;;;;10.13;9.23;;;13.90;99.90;;;;;;5023533;28;24592;-86
2021/08/24 04:46:38;;;;;;;10.00;9.10;;;13.90;99.90;;;;;;5026506;28;25089;-84
2021/08/24 04:49:03;;;;;;;10.10;9.20;;;13.80;99.90;;;;;;5024513;28;24482;-81
2021/08/24 04:51:31;;;;;;;9.13;8.30;;;13.90;99.90;;;;;;5025340;28;24444;-85
2021/08/24 04:53:56;;;;;;;9.10;8.30;;;13.90;99.90;;;;;;5010811;28;24512;-81
2021/08/24 04:56:22;;;;;;;9.70;8.90;;;13.90;99.90;;;;;;5007433;28;24563;-77
2021/08/24 04:58:47;;;;;;;9.97;9.17;;;13.90;99.90;;;;;;5015778;28;24920;-81
2021/08/24 05:01:13;;;;;;;12.53;11.53;;;14.00;99.90;;;;;;5018297;28;24806;-79
2021/08/24 05:03:39;;;;;;;11.20;10.30;;;14.00;99.90;;;;;;5007217;28;24440;-79
2021/08/24 05:06:07;;;;;;;11.20;10.20;;;14.00;99.90;;;;;;5007987;28;24500;-80
2021/08/24 05:08:33;;;;;;;11.35;10.35;;;14.10;99.90;;;;;;5029534;28;24454;-82
2021/08/24 05:11:03;;;;;;;12.67;11.53;;;14.10;99.90;;;;;;5026689;28;24491;-84
2021/08/24 05:13:29;;;;;;;11.85;10.85;;;14.10;99.90;;;;;;5007000;28;24454;-83
2021/08/24 05:15:54;;;;;;;12.40;11.30;;;14.10;99.90;;;;;;5019753;28;24746;-82
2021/08/24 05:18:20;;;;;;;13.23;12.02;;;14.20;99.90;;;;;;5027354;28;24881;-80
2021/08/24 05:20:45;;;;;;;13.80;12.40;;;14.50;99.90;;;;;;5014562;28;24476;-80
2021/08/24 05:23:11;;;;;;;13.10;11.90;;;14.20;99.90;;;;;;5023937;28;24514;-82
2021/08/24 05:25:39;;;;;;;13.90;12.70;;;14.20;99.90;;;;;;5027034;28;24417;-82
2021/08/24 05:28:05;;;;;;;12.40;11.40;;;14.30;99.90;;;;;;5028688;28;24998;-86
2021/08/24 05:30:31;;;;;;;12.95;11.85;;;14.30;99.90;;;;;;5029497;28;24447;-84
2021/08/24 05:32:56;;;;;;;13.40;12.20;;;14.40;99.90;;;;;;5031550;28;25744;-82
2021/08/24 05:35:25;;;;;;;12.73;11.63;;;14.40;99.90;;;;;;5027529;28;24859;-83
2021/08/24 05:37:50;;;;;;;12.95;11.85;;;14.50;99.90;;;;;;5030700;28;24424;-84
2021/08/24 05:40:19;;;;;;;12.40;11.30;;;14.50;99.90;;;;;;5029659;28;24475;-84
2021/08/24 05:42:45;;;;;;;13.32;12.20;;;14.60;99.90;;;;;;5032100;28;20766;-85
2021/08/24 05:45:11;;;;;;;12.98;11.77;;;14.60;99.90;;;;;;5019698;28;24491;-86
2021/08/24 05:47:37;;;;;;;13.90;12.50;;;14.70;99.90;;;;;;5030439;28;24455;-84
2021/08/24 05:50:03;;;;;;;12.00;10.90;;;14.80;99.90;;;;;;5032616;28;24451;-83
2021/08/24 05:52:29;;;;;;;12.18;11.18;;;14.80;99.90;;;;;;5018657;28;24435;-84
2021/08/24 05:54:54;;;;;;;11.90;10.80;;;14.90;99.90;;;;;;5032285;28;24420;-83
2021/08/24 05:57:20;;;;;;;11.40;10.40;;;14.90;99.90;;;;;;5031266;28;24662;-84
2021/08/24 05:59:47;;;;;;;11.60;10.60;;;15.00;99.90;;;;;;5032489;28;24450;-85
2021/08/24 06:02:13;;;;;;;11.07;10.07;;;15.10;99.90;;;;;;5015539;28;24490;-84
2021/08/24 06:04:39;;;;;;;10.95;9.95;;;15.10;99.90;;;;;;5004796;28;24404;-86
2021/08/24 06:07:05;;;;;;;10.50;9.60;;;15.10;99.90;;;;;;5023947;28;24455;-84
2021/08/24 06:09:31;;;;;;;10.30;9.30;;;15.20;99.90;;;;;;5034859;28;25060;-85
2021/08/24 06:11:57;;;;;;;9.90;9.00;;;15.20;99.90;;;;;;5031497;28;24545;-83
2021/08/24 06:14:24;;;;;;;11.38;10.40;;;15.30;99.90;;;;;;5032458;28;24472;-85
2021/08/24 06:16:56;;;;;;;9.60;8.70;;;15.30;99.90;;;;;;5034002;28;24455;-85
2021/08/24 06:19:22;;;;;;;9.40;8.60;;;15.30;99.90;;;;;;5030267;28;24420;-85
2021/08/24 06:21:48;;;;;;;8.93;7.97;;;15.40;99.90;;;;;;5030228;28;24924;-85
2021/08/24 06:24:14;;;;;;;8.45;7.68;;;15.50;99.90;;;;;;5016318;28;24508;-83
2021/08/24 06:26:41;;;;;;;8.10;7.30;;;15.50;99.90;;;;;;5034867;28;24412;-84
2021/08/24 06:29:10;;;;;;;8.13;7.35;;;15.60;99.90;;;;;;5012507;28;25065;-83
2021/08/24 06:31:41;;;;;;;7.20;6.60;;;15.70;99.90;;;;;;5032393;28;24482;-85
2021/08/24 06:34:08;;;;;;;7.68;6.78;;;15.80;99.90;;;;;;5029421;28;24450;-86
2021/08/24 06:36:36;;;;;;;6.85;6.15;;;15.90;99.90;;;;;;5019348;28;25014;-83
2021/08/24 06:39:03;;;;;;;6.13;5.53;;;16.00;99.90;;;;;;5027115;28;24432;-83
2021/08/24 06:41:28;;;;;;;5.70;5.20;;;16.10;99.90;;;;;;5012225;28;24531;-85
2021/08/24 06:43:54;;;;;;;5.10;4.60;;;16.40;99.90;;;;;;5018486;28;24543;-83
2021/08/24 06:46:20;;;;;;;4.90;4.50;;;16.20;99.90;;;;;;5029920;28;24646;-86
2021/08/24 06:48:45;;;;;;;4.53;4.03;;;16.30;99.90;;;;;;5031741;28;25085;-83
2021/08/24 06:51:11;;;;;;;4.38;3.90;;;16.40;99.90;;;;;;5030200;28;24824;-84
2021/08/24 06:53:38;;;;;;;4.20;3.80;;;16.50;99.90;;;;;;5035251;28;24419;-83
2021/08/24 06:56:04;;;;;;;4.65;3.80;;;16.60;99.90;;;;;;5026387;28;24432;-84
2021/08/24 06:58:29;;;;;;;3.75;3.45;;;16.70;99.90;;;;;;5026242;28;25078;-86
2021/08/24 07:00:55;;;;;;;4.17;3.77;;;16.80;99.90;;;;;;5007837;28;24555;-83
2021/08/24 07:03:20;;;;;;;3.40;3.00;;;16.90;99.90;;;;;;5024819;28;24615;-84
2021/08/24 07:05:51;;;;;;;3.53;3.23;;;17.00;99.90;;;;;;5013883;28;24573;-83
2021/08/24 07:08:17;;;;;;;3.45;3.15;;;17.00;99.90;;;;;;5027420;28;24452;-84
2021/08/24 07:10:44;;;;;;;3.40;2.90;;;17.10;99.90;;;;;;5026820;28;25025;-83
2021/08/24 07:13:09;;;;;;;3.22;2.67;;;17.20;99.90;;;;;;5023945;28;24508;-87
2021/08/24 07:15:36;;;;;;;2.90;2.70;;;17.30;99.90;;;;;;5027809;28;24413;-87
2021/08/24 07:18:02;;;;;;;3.13;2.87;;;17.40;99.90;;;;;;5031791;28;25038;-85
2021/08/24 07:20:28;;;;;;;2.72;2.53;;;17.50;99.90;;;;;;5025848;28;24568;-84
2021/08/24 07:22:57;;;;;;;2.77;2.50;;;17.60;99.90;;;;;;5027627;28;24442;-84
2021/08/24 07:25:26;;;;;;;3.70;3.08;;;17.70;99.90;;;;;;5027563;28;24447;-85
2021/08/24 07:27:53;;;;;;;4.40;2.90;;;17.70;99.90;;;;;;5025080;28;24501;-84
2021/08/24 07:30:19;;;;;;;2.75;2.55;;;17.70;99.90;;;;;;5030376;28;24443;-83
2021/08/24 07:32:45;;;;;;;2.80;2.60;;;17.70;99.90;;;;;;5026987;28;24511;-83
2021/08/24 07:35:11;;;;;;;2.80;2.60;;;17.80;99.90;;;;;;5030826;28;24405;-84
2021/08/24 07:37:37;;;;;;;2.92;2.63;;;17.90;99.90;;;;;;5032362;28;24446;-84
2021/08/24 07:40:05;;;;;;;2.87;2.50;;;17.90;99.90;;;;;;5028175;28;24428;-84
2021/08/24 07:42:30;;;;;;;2.70;2.30;;;18.00;99.90;;;;;;5027164;28;24435;-84
2021/08/24 07:44:56;;;;;;;2.60;2.40;;;18.10;99.90;;;;;;5026014;28;24428;-84
2021/08/24 07:47:21;;;;;;;3.40;2.57;;;18.20;99.90;;;;;;5039040;28;24454;-85
2021/08/24 07:49:47;;;;;;;2.90;2.60;;;18.20;99.90;;;;;;5019823;28;24432;-85
2021/08/24 07:52:14;;;;;;;2.40;2.20;;;18.30;99.90;;;;;;5031815;28;24544;-84
2021/08/24 07:54:40;;;;;;;3.17;2.67;;;18.40;99.90;;;;;;5022481;28;24465;-85
2021/08/24 07:57:05;;;;;;;2.47;2.23;;;18.50;99.90;;;;;;5027770;28;24757;-83
2021/08/24 07:59:32;;;;;;;3.10;2.50;;;18.60;99.90;;;;;;5019630;28;24493;-85
2021/08/24 08:01:57;;;;;;;3.15;2.58;;;18.50;99.90;;;;;;5026196;28;24474;-84
2021/08/24 08:04:25;;;;;;;3.50;2.37;;;18.60;99.90;;;;;;5028740;28;24515;-85
2021/08/24 08:06:51;;;;;;;2.30;2.10;;;18.70;99.90;;;;;;5014329;28;24424;-85
2021/08/24 08:09:20;;;;;;;3.15;2.40;;;18.70;99.90;;;;;;5029930;28;24431;-83
2021/08/24 08:11:45;;;;;;;3.60;2.30;;;18.80;99.90;;;;;;5028562;28;24447;-84
2021/08/24 08:14:12;;;;;;;2.30;2.10;;;18.90;99.90;;;;;;5014585;28;24944;-83
2021/08/24 08:16:38;;;;;;;2.45;2.17;;;18.90;99.90;;;;;;5028329;28;24499;-84
2021/08/24 08:19:04;;;;;;;2.60;2.20;;;19.10;99.90;;;;;;5026200;28;24493;-84
2021/08/24 08:21:32;;;;;;;2.73;2.27;;;19.20;99.90;;;;;;5029112;28;24440;-83
2021/08/24 08:23:57;;;;;;;3.38;2.20;;;19.20;99.90;;;;;;5010259;28;24959;-83
2021/08/24 08:26:23;;;;;;;2.43;2.23;;;19.30;99.90;;;;;;5014250;28;24447;-83
2021/08/24 08:28:51;;;;;;;2.45;2.25;;;19.40;99.90;;;;;;5015221;28;24920;-84
2021/08/24 08:31:17;;;;;;;2.22;2.00;;;19.50;99.90;;;;;;5015880;28;24451;-85
2021/08/24 08:33:43;;;;;;;2.45;2.10;;;19.60;99.90;;;;;;5025318;28;24427;-84
2021/08/24 08:36:09;;;;;;;3.03;2.10;;;19.70;99.90;;;;;;5013803;28;24412;-83
2021/08/24 08:38:35;;;;;;;3.10;2.50;;;19.80;99.90;;;;;;5028991;28;24579;-83
2021/08/24 08:41:06;;;;;;;2.45;2.10;;;19.80;99.90;;;;;;5023314;28;24518;-84
2021/08/24 08:43:56;;;;;;;2.30;2.10;;;19.90;99.90;;;;;;5028668;28;24488;-83
2021/08/24 08:46:43;;;;;;;2.40;2.00;;;19.90;99.90;;;;;;5025756;28;24531;-85
2021/08/24 08:49:34;;;;;;;2.28;2.00;;;20.00;99.90;;;;;;5030888;28;24424;-83
2021/08/24 08:52:18;;;;;;;3.10;2.58;;;20.10;99.90;;;;;;5031640;28;20753;-83
2021/08/24 08:55:06;;;;;;;2.93;2.40;;;20.50;99.90;;;;;;5029697;28;24454;-83
2021/08/24 08:57:55;;;;;;;2.65;2.30;;;20.20;99.90;;;;;;5028375;28;24420;-83
2021/08/24 09:00:29;;;;;;;2.53;2.30;;;20.20;99.90;;;;;;5035467;28;24423;-84
2021/08/24 09:03:26;;;;;;;2.97;2.47;;;20.30;99.90;;;;;;5028534;28;24527;-83
2021/08/24 09:05:54;;;;;;;3.00;2.50;;;20.40;99.90;;;;;;5029888;28;24508;-81
2021/08/24 09:08:22;;;;;;;2.70;2.50;;;20.40;99.90;;;;;;5033154;28;24477;-81
2021/08/24 09:10:53;;;;;;;3.30;2.60;;;20.50;99.90;;;;;;5030859;28;24523;-81
2021/08/24 09:13:50;;;;;;;2.70;2.50;;;20.60;99.90;;;;;;5031380;28;24459;-82
2021/08/24 09:16:35;;;;;;;2.47;2.28;;;20.70;99.90;;;;;;5011540;28;24436;-83
2021/08/24 09:19:27;;;;;;;2.80;2.40;;;20.80;99.90;;;;;;5030682;28;24919;-81
2021/08/24 09:21:52;;;;;;;2.75;2.55;;;20.90;99.90;;;;;;5030338;28;20768;-81
2021/08/24 09:24:29;;;;;;;2.70;2.40;;;21.00;99.90;;;;;;5035784;28;24490;-83
2021/08/24 09:27:06;;;;;;;2.85;2.50;;;20.90;99.90;;;;;;5030221;28;24467;-83
2021/08/24 09:29:37;;;;;;;3.95;2.65;;;21.00;99.90;;;;;;5032579;28;20765;-83
2021/08/24 09:32:06;;;;;;;2.60;2.40;;;21.10;99.90;;;;;;5018389;28;24508;-84
2021/08/24 09:34:35;;;;;;;2.83;2.53;;;21.20;99.90;;;;;;5029218;28;20759;-81
2021/08/24 09:37:02;;;;;;;2.40;2.20;;;21.30;99.90;;;;;;5032928;28;24510;-81
2021/08/24 09:39:52;;;;;;;2.78;2.58;;;21.40;99.90;;;;;;5019557;28;24506;-81
2021/08/24 09:42:37;;;;;;;3.00;2.50;;;21.50;99.90;;;;;;5029242;28;24436;-81
2021/08/24 09:45:27;;;;;;;3.30;2.70;;;21.60;99.90;;;;;;5031958;28;20750;-81
2021/08/24 09:47:55;;;;;;;3.67;2.83;;;21.60;99.90;;;;;;5026689;28;24436;-81
2021/08/24 09:50:24;;;;;;;2.70;2.50;;;21.60;99.90;;;;;;5032877;28;20979;-81
2021/08/24 09:52:52;;;;;;;3.25;2.40;;;21.70;99.90;;;;;;5034247;28;20772;-81
2021/08/24 09:55:23;;;;;;;2.80;2.50;;;21.80;99.90;;;;;;5033250;28;20737;-81
2021/08/24 09:57:55;;;;;;;2.47;2.28;;;21.90;99.90;;;;;;5016796;28;20769;-82
2021/08/24 10:00:58;;;;;;;2.80;2.60;;;22.00;99.90;;;;;;5033108;28;24444;-81
2021/08/24 10:03:39;;;;;;;3.10;2.40;;;22.00;99.90;;;;;;5030391;28;20816;-80
2021/08/24 10:06:25;;;;;;;2.90;2.70;;;22.00;99.90;;;;;;5031993;28;20749;-81
2021/08/24 10:08:55;;;;;;;2.60;2.40;;;22.00;99.90;;;;;;5032096;28;24470;-82
2021/08/24 10:11:32;;;;;;;2.97;2.47;;;22.00;99.90;;;;;;5024438;28;24980;-81
2021/08/24 10:14:21;;;;;;;3.10;2.80;;;22.00;99.90;;;;;;5018552;28;20770;-81
2021/08/24 10:16:49;;;;;;;2.95;2.65;;;22.10;99.90;;;;;;5030973;28;20814;-81
2021/08/24 10:19:25;;;;;;;3.00;2.70;;;21.90;99.90;;;;;;5035412;28;20833;-83
2021/08/24 10:21:59;;;;;;;3.50;2.77;;;22.00;99.90;;;;;;5029088;28;20818;-81
2021/08/24 10:24:30;;;;;;;3.08;2.70;;;21.80;99.90;;;;;;5031627;28;24443;-81
2021/08/24 10:27:03;;;;;;;2.70;2.50;;;21.90;99.90;;;;;;5019032;28;20781;-81
2021/08/24 10:29:32;;;;;;;2.80;2.60;;;21.90;99.90;;;;;;5019857;28;20832;-81
2021/08/24 10:32:04;;;;;;;3.90;2.80;;;22.20;99.90;;;;;;5032733;28;24463;-81
2021/08/24 10:34:43;;;;;;;3.30;2.78;;;22.10;99.90;;;;;;5029324;28;20786;-81
2021/08/24 10:37:24;;;;;;;2.78;2.40;;;22.20;99.90;;;;;;5030264;28;20758;-81
2021/08/24 10:39:52;;;;;;;2.60;2.40;;;22.30;99.90;;;;;;5031137;28;24421;-82
2021/08/24 10:42:20;;;;;;;2.70;2.50;;;22.40;99.90;;;;;;5035379;28;20772;-81
2021/08/24 10:44:59;;;;;;;3.15;2.55;;;22.60;99.90;;;;;;5020656;28;24427;-81
2021/08/24 10:47:50;;;;;;;3.00;2.60;;;23.00;99.90;;;;;;5016840;28;24446;-80
2021/08/24 10:50:40;;;;;;;2.85;2.55;;;22.70;99.90;;;;;;5032907;28;24849;-81
2021/08/24 10:53:25;;;;;;;2.63;2.40;;;22.80;99.90;;;;;;5030006;28;20758;-82
2021/08/24 10:56:03;;;;;;;3.97;2.40;;;22.90;99.90;;;;;;5031252;28;20848;-81
2021/08/24 10:58:35;;;;;;;2.90;2.60;;;22.90;99.90;;;;;;5029513;28;20797;-81
2021/08/24 11:01:09;;;;;;;2.67;2.47;;;22.90;99.90;;;;;;5029937;28;21405;-82
2021/08/24 11:03:57;;;;;;;3.00;2.50;;;23.00;99.90;;;;;;5028754;28;24424;-81
2021/08/24 11:06:36;;;;;;;2.40;2.20;;;23.10;99.90;;;;;;5028198;28;24500;-81
2021/08/24 11:09:16;;;;;;;3.38;2.70;;;23.20;99.90;;;;;;5029307;28;24431;-81
2021/08/24 11:11:48;;;;;;;2.80;2.58;;;23.30;99.90;;;;;;5029205;28;24509;-82
2021/08/24 11:14:33;;;;;;;2.42;2.22;;;23.30;99.90;;;;;;5028530;28;24435;-81
2021/08/24 11:17:32;;;;;;;3.22;2.67;;;23.40;99.90;;;;;;5019190;28;24420;-81
2021/08/24 11:20:13;;;;;;;2.63;2.40;;;23.40;99.90;;;;;;5029855;28;25092;-82
2021/08/24 11:23:05;;;;;;;3.23;2.90;;;23.40;99.90;;;;;;5025724;28;20828;-82
2021/08/24 11:25:55;;;;;;;3.08;2.78;;;23.40;99.90;;;;;;5001903;28;24779;-81
2021/08/24 11:28:29;;;;;;;3.00;2.70;;;23.40;99.90;;;;;;5007233;28;24513;-81
2021/08/24 11:31:12;;;;;;;3.40;2.67;;;23.60;99.90;;;;;;5016502;28;24448;-82
2021/08/24 11:33:49;;;;;;;3.10;2.80;;;23.70;99.90;;;;;;5030211;28;24986;-81
2021/08/24 11:36:24;;;;;;;3.08;2.70;;;23.80;99.90;;;;;;5030022;28;21631;-81
2021/08/24 11:39:01;;;;;;;2.95;2.50;;;24.10;99.90;;;;;;5029070;28;24526;-81
2021/08/24 11:41:27;;;;;;;3.10;2.77;;;24.00;99.90;;;;;;5029637;28;24447;-82
2021/08/24 11:44:02;;;;;;;2.72;2.53;;;24.10;99.90;;;;;;5023020;28;24428;-81
2021/08/24 11:46:39;;;;;;;3.10;2.58;;;24.20;99.90;;;;;;5027988;28;24903;-81
2021/08/24 11:49:28;;;;;;;4.10;2.88;;;24.20;99.90;;;;;;5007158;28;24440;-81
2021/08/24 11:52:06;;;;;;;2.77;2.47;;;24.60;99.90;;;;;;5010641;28;24524;-80
2021/08/24 11:55:06;;;;;;;3.80;2.70;;;24.60;99.90;;;;;;5026357;28;24407;-82
2021/08/24 11:57:50;;;;;;;6.47;5.20;;;24.70;99.90;;;;;;5015496;28;24463;-75
2021/08/24 12:00:17;;;;;;;128.20;75.90;;;24.90;99.90;;;;;;5011574;28;24986;-75
2021/08/24 12:02:50;;;;;;;97.10;57.03;;;25.00;99.90;;;;;;4997078;28;24859;-75
2021/08/24 12:05:32;;;;;;;14.05;8.57;;;25.10;99.90;;;;;;5012114;28;24585;-75
2021/08/24 12:08:06;;;;;;;20.85;13.75;;;25.20;99.90;;;;;;5010971;28;25246;-75
2021/08/24 12:10:53;;;;;;;27.63;16.52;;;25.20;99.90;;;;;;5015775;28;24447;-75
2021/08/24 12:13:46;;;;;;;9.23;7.50;;;25.20;99.90;;;;;;5014655;28;24451;-75
2021/08/24 12:16:21;;;;;;;21.35;13.55;;;25.20;99.90;;;;;;4994838;28;24417;-75
2021/08/24 12:18:53;;;;;;;5.13;4.10;;;25.20;99.90;;;;;;5015665;28;24495;-76
2021/08/24 12:21:29;;;;;;;4.63;3.95;;;25.10;99.90;;;;;;5013696;28;24424;-75
2021/08/24 12:23:56;;;;;;;3.90;3.50;;;25.20;99.90;;;;;;5017555;28;24523;-76
2021/08/24 12:26:28;;;;;;;3.45;3.15;;;24.90;99.90;;;;;;5017068;28;24547;-75
2021/08/24 12:28:57;;;;;;;3.63;2.90;;;24.90;99.90;;;;;;5020107;28;24471;-75
2021/08/24 12:31:29;;;;;;;3.10;2.80;;;24.80;99.90;;;;;;5017135;28;24475;-75
2021/08/24 12:33:54;;;;;;;4.03;3.08;;;24.90;99.90;;;;;;5020714;28;24889;-75
2021/08/24 12:36:22;;;;;;;3.85;3.17;;;25.00;99.90;;;;;;5001317;28;24437;-76
2021/08/24 12:38:52;;;;;;;3.10;2.80;;;25.10;99.90;;;;;;5020498;28;24427;-75
2021/08/24 12:41:33;;;;;;;4.18;3.72;;;25.30;99.90;;;;;;5017941;28;25675;-75
2021/08/24 12:44:14;;;;;;;3.50;2.90;;;25.50;99.90;;;;;;5017972;28;24435;-75
2021/08/24 12:46:50;;;;;;;3.03;2.72;;;25.50;99.90;;;;;;5015864;28;24887;-76
2021/08/24 12:49:22;;;;;;;3.58;2.80;;;25.70;99.90;;;;;;5003010;28;25003;-76
2021/08/24 12:52:04;;;;;;;3.10;2.60;;;25.80;99.90;;;;;;5018187;28;24502;-75
2021/08/24 12:54:44;;;;;;;3.05;2.72;;;25.90;99.90;;;;;;5017564;28;24831;-75
2021/08/24 12:57:28;;;;;;;2.75;2.50;;;26.10;99.90;;;;;;5014345;28;25255;-77
2021/08/24 12:59:54;;;;;;;2.90;2.60;;;26.20;99.90;;;;;;5014886;28;24487;-75
2021/08/24 13:02:26;;;;;;;4.15;2.70;;;26.20;99.90;;;;;;5014999;28;24420;-74
2021/08/24 13:05:04;;;;;;;2.58;2.38;;;26.10;99.90;;;;;;5010857;28;25045;-74
2021/08/24 13:07:32;;;;;;;2.65;2.45;;;26.30;99.90;;;;;;5014980;28;24416;-75
2021/08/24 13:10:13;;;;;;;3.90;2.50;;;26.60;99.90;;;;;;4997129;28;24922;-74
2021/08/24 13:12:40;;;;;;;2.75;2.53;;;26.80;99.90;;;;;;5018178;28;25113;-75